sensor_id;sensor_type;location;lat;lon;timestamp;P1;durP1;ratioP1;P2;durP2;ratioP2
20802;SDS011;10562;-33.856;151.182;2023-01-20T00:01:53;10.48;;;4.97;;
20802;SDS011;10562;-33.856;151.182;2023-01-20T00:04:24;13.00;;;5.88;;
20802;SDS011;10562;-33.856;151.182;2023-01-20T00:06:55;11.15;;;4.90;;
20802;SDS011;10562;-33.856;151.182;2023-01-20T00:09:28;10.40;;;4.38;;
20802;SDS011;10562;-33.856;151.182;2023-01-20T00:11:58;8.93;;;4.18;;
20802;SDS011;10562;-33.856;151.182;2023-01-20T00:14:29;10.23;;;3.47;;
20802;SDS011;10562;-33.856;151.182;2023-01-20T00:17:00;11.35;;;3.75;;
20802;SDS011;10562;-33.856;151.182;2023-01-20T00:19:31;11.73;;;3.75;;
20802;SDS011;10562;-33.856;151.182;2023-01-20T00:22:01;8.20;;;3.30;;
20802;SDS011;10562;-33.856;151.182;2023-01-20T00:24:34;11.77;;;3.67;;
20802;SDS011;10562;-33.856;151.182;2023-01-20T00:27:06;5.45;;;2.72;;
20802;SDS011;10562;-33.856;151.182;2023-01-20T00:29:36;7.68;;;3.17;;
20802;SDS011;10562;-33.856;151.182;2023-01-20T00:32:09;9.65;;;3.20;;
20802;SDS011;10562;-33.856;151.182;2023-01-20T00:34:40;9.15;;;3.00;;
20802;SDS011;10562;-33.856;151.182;2023-01-20T00:37:10;10.13;;;2.88;;
20802;SDS011;10562;-33.856;151.182;2023-01-20T00:39:43;9.40;;;2.92;;
20802;SDS011;10562;-33.856;151.182;2023-01-20T00:42:14;9.70;;;2.78;;
20802;SDS011;10562;-33.856;151.182;2023-01-20T00:44:44;9.40;;;3.00;;
20802;SDS011;10562;-33.856;151.182;2023-01-20T00:47:15;7.03;;;3.28;;
20802;SDS011;10562;-33.856;151.182;2023-01-20T00:49:46;7.68;;;3.45;;
20802;SDS011;10562;-33.856;151.182;2023-01-20T00:52:17;7.07;;;3.17;;
20802;SDS011;10562;-33.856;151.182;2023-01-20T00:54:50;6.20;;;3.65;;
20802;SDS011;10562;-33.856;151.182;2023-01-20T00:57:21;13.18;;;5.03;;
20802;SDS011;10562;-33.856;151.182;2023-01-20T00:59:52;9.90;;;4.43;;
20802;SDS011;10562;-33.856;151.182;2023-01-20T01:02:22;11.63;;;3.70;;
20802;SDS011;10562;-33.856;151.182;2023-01-20T01:04:53;8.68;;;3.58;;
20802;SDS011;10562;-33.856;151.182;2023-01-20T01:07:24;9.00;;;3.58;;
20802;SDS011;10562;-33.856;151.182;2023-01-20T01:09:57;8.45;;;3.83;;
20802;SDS011;10562;-33.856;151.182;2023-01-20T01:12:28;5.78;;;3.78;;
20802;SDS011;10562;-33.856;151.182;2023-01-20T01:14:59;10.60;;;3.78;;
20802;SDS011;10562;-33.856;151.182;2023-01-20T01:17:29;8.48;;;3.22;;
20802;SDS011;10562;-33.856;151.182;2023-01-20T01:20:00;8.30;;;3.42;;
20802;SDS011;10562;-33.856;151.182;2023-01-20T01:22:31;12.75;;;3.80;;
20802;SDS011;10562;-33.856;151.182;2023-01-20T01:25:05;14.77;;;3.42;;
20802;SDS011;10562;-33.856;151.182;2023-01-20T01:27:36;11.88;;;3.60;;
20802;SDS011;10562;-33.856;151.182;2023-01-20T01:30:07;7.82;;;3.33;;
20802;SDS011;10562;-33.856;151.182;2023-01-20T01:32:39;12.30;;;3.28;;
20802;SDS011;10562;-33.856;151.182;2023-01-20T01:35:10;9.27;;;3.47;;
20802;SDS011;10562;-33.856;151.182;2023-01-20T01:37:40;12.13;;;2.78;;
20802;SDS011;10562;-33.856;151.182;2023-01-20T01:40:13;11.57;;;2.55;;
20802;SDS011;10562;-33.856;151.182;2023-01-20T01:42:44;9.70;;;2.42;;
20802;SDS011;10562;-33.856;151.182;2023-01-20T01:45:21;8.95;;;1.67;;
20802;SDS011;10562;-33.856;151.182;2023-01-20T01:47:56;6.50;;;1.75;;
20802;SDS011;10562;-33.856;151.182;2023-01-20T01:50:35;10.93;;;1.85;;
20802;SDS011;10562;-33.856;151.182;2023-01-20T01:53:10;8.98;;;1.17;;
20802;SDS011;10562;-33.856;151.182;2023-01-20T01:55:46;5.25;;;1.20;;
20802;SDS011;10562;-33.856;151.182;2023-01-20T01:58:21;8.70;;;1.55;;
20802;SDS011;10562;-33.856;151.182;2023-01-20T02:00:56;10.98;;;1.60;;
20802;SDS011;10562;-33.856;151.182;2023-01-20T02:03:27;8.68;;;1.67;;
20802;SDS011;10562;-33.856;151.182;2023-01-20T02:06:03;8.60;;;1.30;;
20802;SDS011;10562;-33.856;151.182;2023-01-20T02:08:34;4.85;;;1.00;;
20802;SDS011;10562;-33.856;151.182;2023-01-20T02:11:07;6.40;;;1.63;;
20802;SDS011;10562;-33.856;151.182;2023-01-20T02:13:38;13.77;;;1.75;;
20802;SDS011;10562;-33.856;151.182;2023-01-20T02:16:12;8.82;;;1.35;;
20802;SDS011;10562;-33.856;151.182;2023-01-20T02:18:50;9.60;;;1.80;;
20802;SDS011;10562;-33.856;151.182;2023-01-20T02:24:47;9.43;;;1.60;;
20802;SDS011;10562;-33.856;151.182;2023-01-20T02:30:54;7.00;;;1.85;;
20802;SDS011;10562;-33.856;151.182;2023-01-20T02:33:59;8.63;;;1.92;;
20802;SDS011;10562;-33.856;151.182;2023-01-20T02:36:32;7.45;;;1.60;;
20802;SDS011;10562;-33.856;151.182;2023-01-20T02:39:11;9.57;;;1.30;;
20802;SDS011;10562;-33.856;151.182;2023-01-20T02:41:47;10.23;;;1.50;;
20802;SDS011;10562;-33.856;151.182;2023-01-20T02:44:26;9.68;;;1.58;;
20802;SDS011;10562;-33.856;151.182;2023-01-20T02:47:03;6.97;;;1.23;;
20802;SDS011;10562;-33.856;151.182;2023-01-20T02:49:44;9.07;;;1.17;;
20802;SDS011;10562;-33.856;151.182;2023-01-20T02:52:20;8.20;;;1.23;;
20802;SDS011;10562;-33.856;151.182;2023-01-20T02:54:54;6.32;;;1.33;;
20802;SDS011;10562;-33.856;151.182;2023-01-20T02:57:28;5.03;;;1.17;;
20802;SDS011;10562;-33.856;151.182;2023-01-20T03:00:06;4.38;;;0.95;;
20802;SDS011;10562;-33.856;151.182;2023-01-20T03:02:41;5.15;;;1.38;;
20802;SDS011;10562;-33.856;151.182;2023-01-20T03:05:19;7.72;;;1.40;;
20802;SDS011;10562;-33.856;151.182;2023-01-20T03:07:53;8.68;;;1.63;;
20802;SDS011;10562;-33.856;151.182;2023-01-20T03:10:26;8.10;;;1.65;;
20802;SDS011;10562;-33.856;151.182;2023-01-20T03:13:02;6.47;;;1.10;;
20802;SDS011;10562;-33.856;151.182;2023-01-20T03:15:40;6.45;;;1.20;;
20802;SDS011;10562;-33.856;151.182;2023-01-20T03:18:19;9.00;;;1.30;;
20802;SDS011;10562;-33.856;151.182;2023-01-20T03:20:52;3.72;;;1.20;;
20802;SDS011;10562;-33.856;151.182;2023-01-20T03:23:24;8.90;;;1.17;;
20802;SDS011;10562;-33.856;151.182;2023-01-20T03:25:55;9.68;;;1.23;;
20802;SDS011;10562;-33.856;151.182;2023-01-20T03:28:27;4.95;;;1.27;;
20802;SDS011;10562;-33.856;151.182;2023-01-20T03:30:57;5.57;;;1.30;;
20802;SDS011;10562;-33.856;151.182;2023-01-20T03:33:30;5.55;;;1.20;;
20802;SDS011;10562;-33.856;151.182;2023-01-20T03:36:03;5.63;;;1.00;;
20802;SDS011;10562;-33.856;151.182;2023-01-20T03:38:35;5.10;;;0.82;;
20802;SDS011;10562;-33.856;151.182;2023-01-20T03:41:06;4.78;;;0.90;;
20802;SDS011;10562;-33.856;151.182;2023-01-20T03:43:48;6.43;;;1.15;;
20802;SDS011;10562;-33.856;151.182;2023-01-20T03:46:26;7.07;;;1.58;;
20802;SDS011;10562;-33.856;151.182;2023-01-20T03:49:01;8.15;;;1.67;;
20802;SDS011;10562;-33.856;151.182;2023-01-20T03:51:42;7.88;;;1.45;;
20802;SDS011;10562;-33.856;151.182;2023-01-20T03:54:21;12.32;;;1.70;;
20802;SDS011;10562;-33.856;151.182;2023-01-20T03:56:55;9.80;;;1.77;;
20802;SDS011;10562;-33.856;151.182;2023-01-20T03:59:31;9.90;;;1.35;;
20802;SDS011;10562;-33.856;151.182;2023-01-20T04:02:05;6.13;;;1.20;;
20802;SDS011;10562;-33.856;151.182;2023-01-20T04:04:39;8.88;;;1.33;;
20802;SDS011;10562;-33.856;151.182;2023-01-20T04:07:15;8.85;;;1.30;;
20802;SDS011;10562;-33.856;151.182;2023-01-20T04:09:48;7.82;;;1.23;;
20802;SDS011;10562;-33.856;151.182;2023-01-20T04:12:22;9.60;;;1.38;;
20802;SDS011;10562;-33.856;151.182;2023-01-20T04:14:53;7.78;;;1.20;;
20802;SDS011;10562;-33.856;151.182;2023-01-20T04:17:25;8.57;;;1.40;;
20802;SDS011;10562;-33.856;151.182;2023-01-20T04:19:56;3.78;;;1.15;;
20802;SDS011;10562;-33.856;151.182;2023-01-20T04:22:33;7.55;;;1.10;;
20802;SDS011;10562;-33.856;151.182;2023-01-20T04:25:11;11.30;;;1.50;;
20802;SDS011;10562;-33.856;151.182;2023-01-20T04:27:45;8.02;;;1.30;;
20802;SDS011;10562;-33.856;151.182;2023-01-20T04:30:16;8.50;;;1.13;;
20802;SDS011;10562;-33.856;151.182;2023-01-20T04:32:47;8.32;;;1.30;;
20802;SDS011;10562;-33.856;151.182;2023-01-20T04:35:18;7.40;;;1.42;;
20802;SDS011;10562;-33.856;151.182;2023-01-20T04:37:51;8.52;;;1.10;;
20802;SDS011;10562;-33.856;151.182;2023-01-20T04:40:22;6.57;;;1.20;;
20802;SDS011;10562;-33.856;151.182;2023-01-20T04:42:52;8.68;;;1.20;;
20802;SDS011;10562;-33.856;151.182;2023-01-20T04:45:23;6.43;;;1.40;;
20802;SDS011;10562;-33.856;151.182;2023-01-20T04:47:54;9.35;;;1.30;;
20802;SDS011;10562;-33.856;151.182;2023-01-20T04:50:24;5.68;;;1.10;;
20802;SDS011;10562;-33.856;151.182;2023-01-20T04:52:57;6.82;;;1.10;;
20802;SDS011;10562;-33.856;151.182;2023-01-20T04:55:28;5.35;;;1.10;;
20802;SDS011;10562;-33.856;151.182;2023-01-20T04:58:00;4.97;;;1.13;;
20802;SDS011;10562;-33.856;151.182;2023-01-20T05:00:30;8.23;;;1.40;;
20802;SDS011;10562;-33.856;151.182;2023-01-20T05:03:01;5.63;;;1.15;;
20802;SDS011;10562;-33.856;151.182;2023-01-20T05:05:33;7.25;;;1.00;;
20802;SDS011;10562;-33.856;151.182;2023-01-20T05:08:07;10.05;;;1.38;;
20802;SDS011;10562;-33.856;151.182;2023-01-20T05:10:38;4.68;;;1.27;;
20802;SDS011;10562;-33.856;151.182;2023-01-20T05:13:08;6.95;;;1.00;;
20802;SDS011;10562;-33.856;151.182;2023-01-20T05:15:39;6.70;;;1.00;;
20802;SDS011;10562;-33.856;151.182;2023-01-20T05:18:11;5.18;;;1.05;;
20802;SDS011;10562;-33.856;151.182;2023-01-20T05:20:43;6.32;;;1.10;;
20802;SDS011;10562;-33.856;151.182;2023-01-20T05:23:16;8.43;;;1.10;;
20802;SDS011;10562;-33.856;151.182;2023-01-20T05:25:49;7.57;;;1.20;;
20802;SDS011;10562;-33.856;151.182;2023-01-20T05:28:20;8.43;;;1.17;;
20802;SDS011;10562;-33.856;151.182;2023-01-20T05:30:51;9.90;;;1.40;;
20802;SDS011;10562;-33.856;151.182;2023-01-20T05:33:22;8.02;;;2.05;;
20802;SDS011;10562;-33.856;151.182;2023-01-20T05:35:52;6.80;;;1.55;;
20802;SDS011;10562;-33.856;151.182;2023-01-20T05:38:25;6.80;;;1.20;;
20802;SDS011;10562;-33.856;151.182;2023-01-20T05:40:58;6.82;;;1.33;;
20802;SDS011;10562;-33.856;151.182;2023-01-20T05:43:29;6.85;;;1.10;;
20802;SDS011;10562;-33.856;151.182;2023-01-20T05:46:00;14.07;;;5.05;;
20802;SDS011;10562;-33.856;151.182;2023-01-20T05:48:31;9.35;;;2.47;;
20802;SDS011;10562;-33.856;151.182;2023-01-20T05:51:01;10.00;;;2.45;;
20802;SDS011;10562;-33.856;151.182;2023-01-20T05:53:35;6.10;;;1.50;;
20802;SDS011;10562;-33.856;151.182;2023-01-20T05:56:06;7.93;;;1.55;;
20802;SDS011;10562;-33.856;151.182;2023-01-20T05:58:37;9.45;;;1.80;;
20802;SDS011;10562;-33.856;151.182;2023-01-20T06:01:09;7.97;;;1.13;;
20802;SDS011;10562;-33.856;151.182;2023-01-20T06:03:41;8.82;;;3.35;;
20802;SDS011;10562;-33.856;151.182;2023-01-20T06:06:12;8.93;;;2.00;;
20802;SDS011;10562;-33.856;151.182;2023-01-20T06:08:45;8.63;;;2.90;;
20802;SDS011;10562;-33.856;151.182;2023-01-20T06:11:16;9.25;;;2.03;;
20802;SDS011;10562;-33.856;151.182;2023-01-20T06:13:47;8.23;;;2.10;;
20802;SDS011;10562;-33.856;151.182;2023-01-20T06:16:18;4.90;;;1.70;;
20802;SDS011;10562;-33.856;151.182;2023-01-20T06:18:48;6.25;;;1.40;;
20802;SDS011;10562;-33.856;151.182;2023-01-20T06:21:19;9.32;;;1.40;;
20802;SDS011;10562;-33.856;151.182;2023-01-20T06:23:52;6.32;;;1.38;;
20802;SDS011;10562;-33.856;151.182;2023-01-20T06:26:23;5.65;;;1.30;;
20802;SDS011;10562;-33.856;151.182;2023-01-20T06:28:57;8.00;;;1.35;;
20802;SDS011;10562;-33.856;151.182;2023-01-20T06:31:28;8.48;;;1.20;;
20802;SDS011;10562;-33.856;151.182;2023-01-20T06:33:58;6.05;;;1.70;;
20802;SDS011;10562;-33.856;151.182;2023-01-20T06:36:29;7.47;;;1.50;;
20802;SDS011;10562;-33.856;151.182;2023-01-20T06:39:02;13.40;;;1.67;;
20802;SDS011;10562;-33.856;151.182;2023-01-20T06:41:32;8.55;;;1.73;;
20802;SDS011;10562;-33.856;151.182;2023-01-20T06:44:03;8.50;;;1.50;;
20802;SDS011;10562;-33.856;151.182;2023-01-20T06:46:34;9.30;;;1.88;;
20802;SDS011;10562;-33.856;151.182;2023-01-20T06:49:05;11.13;;;2.58;;
20802;SDS011;10562;-33.856;151.182;2023-01-20T06:51:36;6.95;;;2.00;;
20802;SDS011;10562;-33.856;151.182;2023-01-20T06:54:08;8.55;;;1.40;;
20802;SDS011;10562;-33.856;151.182;2023-01-20T06:56:39;11.75;;;2.63;;
20802;SDS011;10562;-33.856;151.182;2023-01-20T06:59:10;7.63;;;2.17;;
20802;SDS011;10562;-33.856;151.182;2023-01-20T07:01:41;13.82;;;3.50;;
20802;SDS011;10562;-33.856;151.182;2023-01-20T07:04:12;9.05;;;1.70;;
20802;SDS011;10562;-33.856;151.182;2023-01-20T07:06:44;6.32;;;1.67;;
20802;SDS011;10562;-33.856;151.182;2023-01-20T07:09:17;9.23;;;1.38;;
20802;SDS011;10562;-33.856;151.182;2023-01-20T07:11:48;7.57;;;1.15;;
20802;SDS011;10562;-33.856;151.182;2023-01-20T07:14:18;7.03;;;1.40;;
20802;SDS011;10562;-33.856;151.182;2023-01-20T07:16:49;7.32;;;1.60;;
20802;SDS011;10562;-33.856;151.182;2023-01-20T07:19:20;8.27;;;1.30;;
20802;SDS011;10562;-33.856;151.182;2023-01-20T07:21:51;7.60;;;1.40;;
20802;SDS011;10562;-33.856;151.182;2023-01-20T07:24:24;12.48;;;1.70;;
20802;SDS011;10562;-33.856;151.182;2023-01-20T07:26:54;10.38;;;1.85;;
20802;SDS011;10562;-33.856;151.182;2023-01-20T07:29:25;8.27;;;1.40;;
20802;SDS011;10562;-33.856;151.182;2023-01-20T07:31:56;7.50;;;1.58;;
20802;SDS011;10562;-33.856;151.182;2023-01-20T07:34:27;4.10;;;1.30;;
20802;SDS011;10562;-33.856;151.182;2023-01-20T07:36:58;8.70;;;1.55;;
20802;SDS011;10562;-33.856;151.182;2023-01-20T07:39:30;7.28;;;1.85;;
20802;SDS011;10562;-33.856;151.182;2023-01-20T07:42:01;5.75;;;1.40;;
20802;SDS011;10562;-33.856;151.182;2023-01-20T07:44:32;9.10;;;1.48;;
20802;SDS011;10562;-33.856;151.182;2023-01-20T07:47:03;8.18;;;1.67;;
20802;SDS011;10562;-33.856;151.182;2023-01-20T07:49:34;7.03;;;1.70;;
20802;SDS011;10562;-33.856;151.182;2023-01-20T07:52:04;8.30;;;1.30;;
20802;SDS011;10562;-33.856;151.182;2023-01-20T07:54:37;6.85;;;1.25;;
20802;SDS011;10562;-33.856;151.182;2023-01-20T07:57:08;8.23;;;1.00;;
20802;SDS011;10562;-33.856;151.182;2023-01-20T07:59:39;8.18;;;1.30;;
20802;SDS011;10562;-33.856;151.182;2023-01-20T08:02:09;6.78;;;1.20;;
20802;SDS011;10562;-33.856;151.182;2023-01-20T08:04:40;27.33;;;9.75;;
20802;SDS011;10562;-33.856;151.182;2023-01-20T08:07:11;23.23;;;9.90;;
20802;SDS011;10562;-33.856;151.182;2023-01-20T08:09:44;11.18;;;3.15;;
20802;SDS011;10562;-33.856;151.182;2023-01-20T08:12:15;5.32;;;1.90;;
20802;SDS011;10562;-33.856;151.182;2023-01-20T08:14:46;8.10;;;2.28;;
20802;SDS011;10562;-33.856;151.182;2023-01-20T08:17:17;10.20;;;2.13;;
20802;SDS011;10562;-33.856;151.182;2023-01-20T08:19:48;7.78;;;2.00;;
20802;SDS011;10562;-33.856;151.182;2023-01-20T08:22:19;7.50;;;2.35;;
20802;SDS011;10562;-33.856;151.182;2023-01-20T08:24:52;9.75;;;1.95;;
20802;SDS011;10562;-33.856;151.182;2023-01-20T08:27:23;9.98;;;2.55;;
20802;SDS011;10562;-33.856;151.182;2023-01-20T08:29:54;8.80;;;2.20;;
20802;SDS011;10562;-33.856;151.182;2023-01-20T08:32:24;13.07;;;3.50;;
20802;SDS011;10562;-33.856;151.182;2023-01-20T08:34:55;15.50;;;3.92;;
20802;SDS011;10562;-33.856;151.182;2023-01-20T08:37:26;13.38;;;3.25;;
20802;SDS011;10562;-33.856;151.182;2023-01-20T08:39:59;14.57;;;4.07;;
20802;SDS011;10562;-33.856;151.182;2023-01-20T08:42:30;12.45;;;3.63;;
20802;SDS011;10562;-33.856;151.182;2023-01-20T08:45:00;15.77;;;4.32;;
20802;SDS011;10562;-33.856;151.182;2023-01-20T08:47:33;12.63;;;4.00;;
20802;SDS011;10562;-33.856;151.182;2023-01-20T08:50:05;13.60;;;2.90;;
20802;SDS011;10562;-33.856;151.182;2023-01-20T08:52:36;14.25;;;2.60;;
20802;SDS011;10562;-33.856;151.182;2023-01-20T08:55:09;10.10;;;2.88;;
20802;SDS011;10562;-33.856;151.182;2023-01-20T08:57:40;10.00;;;2.42;;
20802;SDS011;10562;-33.856;151.182;2023-01-20T09:00:11;12.10;;;2.72;;
20802;SDS011;10562;-33.856;151.182;2023-01-20T09:02:42;11.63;;;3.08;;
20802;SDS011;10562;-33.856;151.182;2023-01-20T09:05:13;9.13;;;3.15;;
20802;SDS011;10562;-33.856;151.182;2023-01-20T09:07:46;10.90;;;3.13;;
20802;SDS011;10562;-33.856;151.182;2023-01-20T09:10:19;11.30;;;2.55;;
20802;SDS011;10562;-33.856;151.182;2023-01-20T09:12:50;7.35;;;2.13;;
20802;SDS011;10562;-33.856;151.182;2023-01-20T09:15:21;13.32;;;2.45;;
20802;SDS011;10562;-33.856;151.182;2023-01-20T09:17:51;9.00;;;2.28;;
20802;SDS011;10562;-33.856;151.182;2023-01-20T09:20:23;9.60;;;2.42;;
20802;SDS011;10562;-33.856;151.182;2023-01-20T09:22:55;11.63;;;2.92;;
20802;SDS011;10562;-33.856;151.182;2023-01-20T09:25:31;11.65;;;2.78;;
20802;SDS011;10562;-33.856;151.182;2023-01-20T09:28:02;11.73;;;2.63;;
20802;SDS011;10562;-33.856;151.182;2023-01-20T09:30:33;8.75;;;2.58;;
20802;SDS011;10562;-33.856;151.182;2023-01-20T09:33:04;12.25;;;3.50;;
20802;SDS011;10562;-33.856;151.182;2023-01-20T09:35:34;7.57;;;2.10;;
20802;SDS011;10562;-33.856;151.182;2023-01-20T09:38:05;10.23;;;2.67;;
20802;SDS011;10562;-33.856;151.182;2023-01-20T09:40:56;10.77;;;2.60;;
20802;SDS011;10562;-33.856;151.182;2023-01-20T09:43:55;7.10;;;2.67;;
20802;SDS011;10562;-33.856;151.182;2023-01-20T09:46:31;7.78;;;1.90;;
20802;SDS011;10562;-33.856;151.182;2023-01-20T09:49:14;17.08;;;5.95;;
20802;SDS011;10562;-33.856;151.182;2023-01-20T09:52:08;7.03;;;2.60;;
20802;SDS011;10562;-33.856;151.182;2023-01-20T09:54:59;7.20;;;2.28;;
20802;SDS011;10562;-33.856;151.182;2023-01-20T09:57:38;8.18;;;1.80;;
20802;SDS011;10562;-33.856;151.182;2023-01-20T10:00:17;6.72;;;1.75;;
20802;SDS011;10562;-33.856;151.182;2023-01-20T10:02:50;8.65;;;1.80;;
20802;SDS011;10562;-33.856;151.182;2023-01-20T10:05:27;5.72;;;1.65;;
20802;SDS011;10562;-33.856;151.182;2023-01-20T10:08:05;5.18;;;1.42;;
20802;SDS011;10562;-33.856;151.182;2023-01-20T10:10:42;10.98;;;1.90;;
20802;SDS011;10562;-33.856;151.182;2023-01-20T10:13:22;7.88;;;1.90;;
20802;SDS011;10562;-33.856;151.182;2023-01-20T10:15:56;5.55;;;1.70;;
20802;SDS011;10562;-33.856;151.182;2023-01-20T10:18:34;9.70;;;2.20;;
20802;SDS011;10562;-33.856;151.182;2023-01-20T10:21:12;10.13;;;2.33;;
20802;SDS011;10562;-33.856;151.182;2023-01-20T10:23:48;6.38;;;1.88;;
20802;SDS011;10562;-33.856;151.182;2023-01-20T10:26:24;9.23;;;2.10;;
20802;SDS011;10562;-33.856;151.182;2023-01-20T10:29:02;7.35;;;1.80;;
20802;SDS011;10562;-33.856;151.182;2023-01-20T10:31:36;7.80;;;1.98;;
20802;SDS011;10562;-33.856;151.182;2023-01-20T10:34:13;6.55;;;1.92;;
20802;SDS011;10562;-33.856;151.182;2023-01-20T10:36:47;11.30;;;1.73;;
20802;SDS011;10562;-33.856;151.182;2023-01-20T10:39:37;9.57;;;1.15;;
20802;SDS011;10562;-33.856;151.182;2023-01-20T10:42:11;10.25;;;1.30;;
20802;SDS011;10562;-33.856;151.182;2023-01-20T10:44:45;6.68;;;1.33;;
20802;SDS011;10562;-33.856;151.182;2023-01-20T10:47:22;8.05;;;1.40;;
20802;SDS011;10562;-33.856;151.182;2023-01-20T10:50:02;9.30;;;1.17;;
20802;SDS011;10562;-33.856;151.182;2023-01-20T10:55:55;8.63;;;1.58;;
20802;SDS011;10562;-33.856;151.182;2023-01-20T10:58:34;6.75;;;1.40;;
20802;SDS011;10562;-33.856;151.182;2023-01-20T11:01:12;5.07;;;1.50;;
20802;SDS011;10562;-33.856;151.182;2023-01-20T11:03:45;5.50;;;1.15;;
20802;SDS011;10562;-33.856;151.182;2023-01-20T11:06:17;6.72;;;1.52;;
20802;SDS011;10562;-33.856;151.182;2023-01-20T11:08:50;2.85;;;1.10;;
20802;SDS011;10562;-33.856;151.182;2023-01-20T11:11:21;7.45;;;1.10;;
20802;SDS011;10562;-33.856;151.182;2023-01-20T11:13:54;9.82;;;1.20;;
20802;SDS011;10562;-33.856;151.182;2023-01-20T11:16:27;6.93;;;1.30;;
20802;SDS011;10562;-33.856;151.182;2023-01-20T11:18:59;7.65;;;1.55;;
20802;SDS011;10562;-33.856;151.182;2023-01-20T11:21:31;7.20;;;1.40;;
20802;SDS011;10562;-33.856;151.182;2023-01-20T11:24:23;9.07;;;1.30;;
20802;SDS011;10562;-33.856;151.182;2023-01-20T11:27:04;7.15;;;1.20;;
20802;SDS011;10562;-33.856;151.182;2023-01-20T11:29:40;7.10;;;1.30;;
20802;SDS011;10562;-33.856;151.182;2023-01-20T11:32:27;10.75;;;1.55;;
20802;SDS011;10562;-33.856;151.182;2023-01-20T11:35:00;9.85;;;1.90;;
20802;SDS011;10562;-33.856;151.182;2023-01-20T11:37:47;9.68;;;2.17;;
20802;SDS011;10562;-33.856;151.182;2023-01-20T11:40:19;11.05;;;2.00;;
20802;SDS011;10562;-33.856;151.182;2023-01-20T11:42:51;10.30;;;2.00;;
20802;SDS011;10562;-33.856;151.182;2023-01-20T11:45:31;13.75;;;2.17;;
20802;SDS011;10562;-33.856;151.182;2023-01-20T11:48:14;9.93;;;2.10;;
20802;SDS011;10562;-33.856;151.182;2023-01-20T11:50:46;10.60;;;2.75;;
20802;SDS011;10562;-33.856;151.182;2023-01-20T11:53:20;9.15;;;2.78;;
20802;SDS011;10562;-33.856;151.182;2023-01-20T11:55:53;11.15;;;2.90;;
20802;SDS011;10562;-33.856;151.182;2023-01-20T11:58:25;8.63;;;3.08;;
20802;SDS011;10562;-33.856;151.182;2023-01-20T12:00:59;13.90;;;3.30;;
20802;SDS011;10562;-33.856;151.182;2023-01-20T12:03:42;9.20;;;3.10;;
20802;SDS011;10562;-33.856;151.182;2023-01-20T12:06:32;9.45;;;3.40;;
20802;SDS011;10562;-33.856;151.182;2023-01-20T12:09:09;10.27;;;3.15;;
20802;SDS011;10562;-33.856;151.182;2023-01-20T12:11:49;11.93;;;3.20;;
20802;SDS011;10562;-33.856;151.182;2023-01-20T12:14:25;8.20;;;3.65;;
20802;SDS011;10562;-33.856;151.182;2023-01-20T12:17:15;10.00;;;3.67;;
20802;SDS011;10562;-33.856;151.182;2023-01-20T12:20:04;11.88;;;4.68;;
20802;SDS011;10562;-33.856;151.182;2023-01-20T12:22:41;13.77;;;4.82;;
20802;SDS011;10562;-33.856;151.182;2023-01-20T12:25:17;10.07;;;5.40;;
20802;SDS011;10562;-33.856;151.182;2023-01-20T12:27:50;7.20;;;4.75;;
20802;SDS011;10562;-33.856;151.182;2023-01-20T12:30:28;10.68;;;5.43;;
20802;SDS011;10562;-33.856;151.182;2023-01-20T12:33:17;12.48;;;6.07;;
20802;SDS011;10562;-33.856;151.182;2023-01-20T12:39:17;12.15;;;7.03;;
20802;SDS011;10562;-33.856;151.182;2023-01-20T12:45:13;10.60;;;7.18;;
20802;SDS011;10562;-33.856;151.182;2023-01-20T12:47:54;9.65;;;7.10;;
20802;SDS011;10562;-33.856;151.182;2023-01-20T12:50:33;11.57;;;8.27;;
20802;SDS011;10562;-33.856;151.182;2023-01-20T12:53:24;17.90;;;7.93;;
20802;SDS011;10562;-33.856;151.182;2023-01-20T12:56:06;14.27;;;7.88;;
20802;SDS011;10562;-33.856;151.182;2023-01-20T12:58:46;12.43;;;8.13;;
20802;SDS011;10562;-33.856;151.182;2023-01-20T13:01:31;10.15;;;8.65;;
20802;SDS011;10562;-33.856;151.182;2023-01-20T13:04:19;13.18;;;9.80;;
20802;SDS011;10562;-33.856;151.182;2023-01-20T13:07:22;14.55;;;9.85;;
20802;SDS011;10562;-33.856;151.182;2023-01-20T13:10:18;12.50;;;11.05;;
20802;SDS011;10562;-33.856;151.182;2023-01-20T13:13:02;14.05;;;8.52;;
20802;SDS011;10562;-33.856;151.182;2023-01-20T13:15:41;13.80;;;10.02;;
20802;SDS011;10562;-33.856;151.182;2023-01-20T13:18:21;11.57;;;9.63;;
20802;SDS011;10562;-33.856;151.182;2023-01-20T13:20:54;13.38;;;9.10;;
20802;SDS011;10562;-33.856;151.182;2023-01-20T13:23:26;16.10;;;10.18;;
20802;SDS011;10562;-33.856;151.182;2023-01-20T13:26:00;10.82;;;9.55;;
20802;SDS011;10562;-33.856;151.182;2023-01-20T13:28:33;13.82;;;10.27;;
20802;SDS011;10562;-33.856;151.182;2023-01-20T13:39:52;14.63;;;11.77;;
20802;SDS011;10562;-33.856;151.182;2023-01-20T13:45:22;15.95;;;11.70;;
20802;SDS011;10562;-33.856;151.182;2023-01-20T13:47:58;17.38;;;12.88;;
20802;SDS011;10562;-33.856;151.182;2023-01-20T13:50:30;13.38;;;11.20;;
20802;SDS011;10562;-33.856;151.182;2023-01-20T13:53:10;14.00;;;11.07;;
20802;SDS011;10562;-33.856;151.182;2023-01-20T13:55:55;17.45;;;13.20;;
20802;SDS011;10562;-33.856;151.182;2023-01-20T13:58:29;15.48;;;10.02;;
20802;SDS011;10562;-33.856;151.182;2023-01-20T14:01:02;16.80;;;11.90;;
20802;SDS011;10562;-33.856;151.182;2023-01-20T14:03:34;18.95;;;12.20;;
20802;SDS011;10562;-33.856;151.182;2023-01-20T14:06:06;17.15;;;13.70;;
20802;SDS011;10562;-33.856;151.182;2023-01-20T14:08:49;17.00;;;13.13;;
20802;SDS011;10562;-33.856;151.182;2023-01-20T14:11:20;21.00;;;11.68;;
20802;SDS011;10562;-33.856;151.182;2023-01-20T14:13:54;13.65;;;12.25;;
20802;SDS011;10562;-33.856;151.182;2023-01-20T14:16:27;21.40;;;14.82;;
20802;SDS011;10562;-33.856;151.182;2023-01-20T14:19:04;17.05;;;15.25;;
20802;SDS011;10562;-33.856;151.182;2023-01-20T14:21:49;15.73;;;13.98;;
20802;SDS011;10562;-33.856;151.182;2023-01-20T14:24:28;18.55;;;15.52;;
20802;SDS011;10562;-33.856;151.182;2023-01-20T14:27:06;21.50;;;15.10;;
20802;SDS011;10562;-33.856;151.182;2023-01-20T14:29:44;19.40;;;16.70;;
20802;SDS011;10562;-33.856;151.182;2023-01-20T14:32:16;16.83;;;15.05;;
20802;SDS011;10562;-33.856;151.182;2023-01-20T14:34:48;22.23;;;19.30;;
20802;SDS011;10562;-33.856;151.182;2023-01-20T14:37:22;18.65;;;16.67;;
20802;SDS011;10562;-33.856;151.182;2023-01-20T14:39:56;18.88;;;16.75;;
20802;SDS011;10562;-33.856;151.182;2023-01-20T14:42:28;18.17;;;16.10;;
20802;SDS011;10562;-33.856;151.182;2023-01-20T14:45:00;17.50;;;15.70;;
20802;SDS011;10562;-33.856;151.182;2023-01-20T14:47:44;19.20;;;17.40;;
20802;SDS011;10562;-33.856;151.182;2023-01-20T14:50:15;17.15;;;15.40;;
20802;SDS011;10562;-33.856;151.182;2023-01-20T14:52:47;16.13;;;14.52;;
20802;SDS011;10562;-33.856;151.182;2023-01-20T14:55:27;15.18;;;13.77;;
20802;SDS011;10562;-33.856;151.182;2023-01-20T14:57:59;17.05;;;15.38;;
20802;SDS011;10562;-33.856;151.182;2023-01-20T15:00:37;19.30;;;17.17;;
20802;SDS011;10562;-33.856;151.182;2023-01-20T15:03:13;20.35;;;18.23;;
20802;SDS011;10562;-33.856;151.182;2023-01-20T15:05:52;19.08;;;16.80;;
20802;SDS011;10562;-33.856;151.182;2023-01-20T15:08:25;19.15;;;17.33;;
20802;SDS011;10562;-33.856;151.182;2023-01-20T15:11:19;21.85;;;19.80;;
20802;SDS011;10562;-33.856;151.182;2023-01-20T15:14:06;21.15;;;19.35;;